sensor_id;sensor_type;location;lat;lon;timestamp;P1;durP1;ratioP1;P2;durP2;ratioP2
44842;SDS011;31884;52.538;13.820;2023-06-10T00:02:00;10.95;;;5.30;;
44842;SDS011;31884;52.538;13.820;2023-06-10T00:04:26;12.15;;;5.28;;
44842;SDS011;31884;52.538;13.820;2023-06-10T00:06:52;9.35;;;4.55;;
44842;SDS011;31884;52.538;13.820;2023-06-10T00:09:18;8.15;;;4.38;;
44842;SDS011;31884;52.538;13.820;2023-06-10T00:11:44;6.85;;;4.45;;
44842;SDS011;31884;52.538;13.820;2023-06-10T00:14:09;13.25;;;4.82;;
44842;SDS011;31884;52.538;13.820;2023-06-10T00:16:35;6.32;;;4.20;;
44842;SDS011;31884;52.538;13.820;2023-06-10T00:19:01;12.85;;;4.35;;
44842;SDS011;31884;52.538;13.820;2023-06-10T00:21:30;6.82;;;3.80;;
44842;SDS011;31884;52.538;13.820;2023-06-10T00:24:05;8.63;;;4.82;;
44842;SDS011;31884;52.538;13.820;2023-06-10T00:26:31;8.65;;;4.82;;
44842;SDS011;31884;52.538;13.820;2023-06-10T00:28:58;8.85;;;4.25;;
44842;SDS011;31884;52.538;13.820;2023-06-10T00:31:23;9.43;;;4.15;;
44842;SDS011;31884;52.538;13.820;2023-06-10T00:33:51;7.13;;;3.67;;
44842;SDS011;31884;52.538;13.820;2023-06-10T00:36:16;10.00;;;4.40;;
44842;SDS011;31884;52.538;13.820;2023-06-10T00:38:42;7.68;;;3.97;;
44842;SDS011;31884;52.538;13.820;2023-06-10T00:41:07;10.48;;;4.13;;
44842;SDS011;31884;52.538;13.820;2023-06-10T00:43:33;9.13;;;4.45;;
44842;SDS011;31884;52.538;13.820;2023-06-10T00:45:58;9.75;;;4.03;;
44842;SDS011;31884;52.538;13.820;2023-06-10T00:48:24;8.57;;;3.72;;
44842;SDS011;31884;52.538;13.820;2023-06-10T00:50:50;7.18;;;3.90;;
44842;SDS011;31884;52.538;13.820;2023-06-10T00:53:16;9.07;;;4.65;;
44842;SDS011;31884;52.538;13.820;2023-06-10T00:55:42;8.68;;;4.65;;
44842;SDS011;31884;52.538;13.820;2023-06-10T00:58:08;8.88;;;4.28;;
44842;SDS011;31884;52.538;13.820;2023-06-10T01:00:34;7.47;;;4.40;;
44842;SDS011;31884;52.538;13.820;2023-06-10T01:02:59;7.93;;;4.22;;
44842;SDS011;31884;52.538;13.820;2023-06-10T01:05:25;7.45;;;3.75;;
44842;SDS011;31884;52.538;13.820;2023-06-10T01:08:07;9.48;;;4.35;;
44842;SDS011;31884;52.538;13.820;2023-06-10T01:10:50;8.48;;;4.50;;
44842;SDS011;31884;52.538;13.820;2023-06-10T01:13:20;6.30;;;4.40;;
44842;SDS011;31884;52.538;13.820;2023-06-10T01:15:48;9.05;;;4.25;;
44842;SDS011;31884;52.538;13.820;2023-06-10T01:18:15;7.55;;;4.15;;
44842;SDS011;31884;52.538;13.820;2023-06-10T01:20:41;6.80;;;4.10;;
44842;SDS011;31884;52.538;13.820;2023-06-10T01:23:08;10.60;;;4.95;;
44842;SDS011;31884;52.538;13.820;2023-06-10T01:25:37;6.90;;;3.97;;
44842;SDS011;31884;52.538;13.820;2023-06-10T01:28:11;8.15;;;4.68;;
44842;SDS011;31884;52.538;13.820;2023-06-10T01:33:33;7.60;;;4.25;;
44842;SDS011;31884;52.538;13.820;2023-06-10T01:36:00;8.82;;;4.38;;
44842;SDS011;31884;52.538;13.820;2023-06-10T01:38:29;7.97;;;4.00;;
44842;SDS011;31884;52.538;13.820;2023-06-10T01:40:58;8.60;;;4.70;;
44842;SDS011;31884;52.538;13.820;2023-06-10T01:43:24;14.13;;;5.53;;
44842;SDS011;31884;52.538;13.820;2023-06-10T01:45:50;6.50;;;4.57;;
44842;SDS011;31884;52.538;13.820;2023-06-10T01:48:16;11.77;;;5.97;;
44842;SDS011;31884;52.538;13.820;2023-06-10T01:50:41;14.75;;;5.80;;
44842;SDS011;31884;52.538;13.820;2023-06-10T01:53:08;9.15;;;4.60;;
44842;SDS011;31884;52.538;13.820;2023-06-10T01:55:34;12.32;;;5.30;;
44842;SDS011;31884;52.538;13.820;2023-06-10T01:57:59;10.70;;;4.70;;
44842;SDS011;31884;52.538;13.820;2023-06-10T02:00:25;9.38;;;4.78;;
44842;SDS011;31884;52.538;13.820;2023-06-10T02:02:50;7.70;;;4.55;;
44842;SDS011;31884;52.538;13.820;2023-06-10T02:05:16;7.85;;;4.20;;
44842;SDS011;31884;52.538;13.820;2023-06-10T02:07:41;12.15;;;5.72;;
44842;SDS011;31884;52.538;13.820;2023-06-10T02:10:07;9.75;;;4.28;;
44842;SDS011;31884;52.538;13.820;2023-06-10T02:12:33;11.38;;;4.68;;
44842;SDS011;31884;52.538;13.820;2023-06-10T02:14:59;8.57;;;4.53;;
44842;SDS011;31884;52.538;13.820;2023-06-10T02:17:24;9.65;;;5.10;;
44842;SDS011;31884;52.538;13.820;2023-06-10T02:19:50;10.18;;;4.47;;
44842;SDS011;31884;52.538;13.820;2023-06-10T02:22:21;9.93;;;4.93;;
44842;SDS011;31884;52.538;13.820;2023-06-10T02:24:48;11.88;;;4.95;;
44842;SDS011;31884;52.538;13.820;2023-06-10T02:27:14;9.38;;;5.55;;
44842;SDS011;31884;52.538;13.820;2023-06-10T02:29:40;10.55;;;5.53;;
44842;SDS011;31884;52.538;13.820;2023-06-10T02:32:06;10.45;;;6.30;;
44842;SDS011;31884;52.538;13.820;2023-06-10T02:34:32;9.05;;;5.20;;
44842;SDS011;31884;52.538;13.820;2023-06-10T02:36:58;9.80;;;5.75;;
44842;SDS011;31884;52.538;13.820;2023-06-10T02:39:24;9.95;;;5.30;;
44842;SDS011;31884;52.538;13.820;2023-06-10T02:41:50;9.55;;;5.90;;
44842;SDS011;31884;52.538;13.820;2023-06-10T02:44:15;7.47;;;4.65;;
44842;SDS011;31884;52.538;13.820;2023-06-10T02:46:42;10.68;;;4.80;;
44842;SDS011;31884;52.538;13.820;2023-06-10T02:49:08;6.35;;;4.18;;
44842;SDS011;31884;52.538;13.820;2023-06-10T02:51:33;9.00;;;5.32;;
44842;SDS011;31884;52.538;13.820;2023-06-10T02:53:59;10.18;;;5.35;;
44842;SDS011;31884;52.538;13.820;2023-06-10T02:56:24;10.57;;;4.95;;
44842;SDS011;31884;52.538;13.820;2023-06-10T02:58:50;12.57;;;4.95;;
44842;SDS011;31884;52.538;13.820;2023-06-10T03:01:16;10.52;;;5.43;;
44842;SDS011;31884;52.538;13.820;2023-06-10T03:03:43;11.30;;;5.60;;
44842;SDS011;31884;52.538;13.820;2023-06-10T03:06:11;14.70;;;6.20;;
44842;SDS011;31884;52.538;13.820;2023-06-10T03:08:37;7.30;;;5.22;;
44842;SDS011;31884;52.538;13.820;2023-06-10T03:11:03;6.57;;;4.78;;
44842;SDS011;31884;52.538;13.820;2023-06-10T03:13:29;10.75;;;5.00;;
44842;SDS011;31884;52.538;13.820;2023-06-10T03:15:54;7.25;;;4.68;;
44842;SDS011;31884;52.538;13.820;2023-06-10T03:18:20;9.90;;;6.13;;
44842;SDS011;31884;52.538;13.820;2023-06-10T03:20:48;10.73;;;5.22;;
44842;SDS011;31884;52.538;13.820;2023-06-10T03:23:13;7.93;;;4.82;;
44842;SDS011;31884;52.538;13.820;2023-06-10T03:25:39;10.30;;;5.70;;
44842;SDS011;31884;52.538;13.820;2023-06-10T03:28:04;9.82;;;5.45;;
44842;SDS011;31884;52.538;13.820;2023-06-10T03:30:29;7.53;;;4.93;;
44842;SDS011;31884;52.538;13.820;2023-06-10T03:32:56;9.25;;;4.82;;
44842;SDS011;31884;52.538;13.820;2023-06-10T03:35:21;7.65;;;4.80;;
44842;SDS011;31884;52.538;13.820;2023-06-10T03:37:47;9.48;;;5.00;;
44842;SDS011;31884;52.538;13.820;2023-06-10T03:40:12;11.13;;;4.55;;
44842;SDS011;31884;52.538;13.820;2023-06-10T03:42:38;6.78;;;4.78;;
44842;SDS011;31884;52.538;13.820;2023-06-10T03:45:03;9.55;;;5.22;;
44842;SDS011;31884;52.538;13.820;2023-06-10T03:47:36;7.15;;;4.97;;
44842;SDS011;31884;52.538;13.820;2023-06-10T03:50:02;8.45;;;5.13;;
44842;SDS011;31884;52.538;13.820;2023-06-10T03:52:29;7.20;;;4.90;;
44842;SDS011;31884;52.538;13.820;2023-06-10T03:54:55;7.45;;;4.90;;
44842;SDS011;31884;52.538;13.820;2023-06-10T03:57:20;7.45;;;5.18;;
44842;SDS011;31884;52.538;13.820;2023-06-10T03:59:46;12.45;;;5.07;;
44842;SDS011;31884;52.538;13.820;2023-06-10T04:02:11;9.20;;;5.40;;
44842;SDS011;31884;52.538;13.820;2023-06-10T04:04:36;7.93;;;4.97;;
44842;SDS011;31884;52.538;13.820;2023-06-10T04:07:03;8.63;;;5.00;;
44842;SDS011;31884;52.538;13.820;2023-06-10T04:09:29;7.50;;;4.53;;
44842;SDS011;31884;52.538;13.820;2023-06-10T04:11:55;10.05;;;4.85;;
44842;SDS011;31884;52.538;13.820;2023-06-10T04:14:20;9.10;;;4.85;;
44842;SDS011;31884;52.538;13.820;2023-06-10T04:16:46;6.88;;;4.47;;
44842;SDS011;31884;52.538;13.820;2023-06-10T04:19:11;7.18;;;4.13;;
44842;SDS011;31884;52.538;13.820;2023-06-10T04:21:37;7.82;;;4.75;;
44842;SDS011;31884;52.538;13.820;2023-06-10T04:24:02;6.60;;;4.25;;
44842;SDS011;31884;52.538;13.820;2023-06-10T04:26:28;7.28;;;4.40;;
44842;SDS011;31884;52.538;13.820;2023-06-10T04:28:53;8.10;;;4.78;;
44842;SDS011;31884;52.538;13.820;2023-06-10T04:31:19;8.70;;;5.18;;
44842;SDS011;31884;52.538;13.820;2023-06-10T04:33:45;11.68;;;4.97;;
44842;SDS011;31884;52.538;13.820;2023-06-10T04:36:11;7.90;;;4.60;;
44842;SDS011;31884;52.538;13.820;2023-06-10T04:38:36;12.35;;;5.40;;
44842;SDS011;31884;52.538;13.820;2023-06-10T04:41:02;8.27;;;5.10;;
44842;SDS011;31884;52.538;13.820;2023-06-10T04:43:27;6.85;;;4.80;;
44842;SDS011;31884;52.538;13.820;2023-06-10T04:45:54;6.65;;;4.20;;
44842;SDS011;31884;52.538;13.820;2023-06-10T04:48:20;8.75;;;5.10;;
44842;SDS011;31884;52.538;13.820;2023-06-10T04:50:45;9.45;;;4.93;;
44842;SDS011;31884;52.538;13.820;2023-06-10T04:53:11;6.60;;;4.18;;
44842;SDS011;31884;52.538;13.820;2023-06-10T04:55:36;6.10;;;4.35;;
44842;SDS011;31884;52.538;13.820;2023-06-10T04:58:02;7.32;;;3.88;;
44842;SDS011;31884;52.538;13.820;2023-06-10T05:00:27;8.18;;;4.95;;
44842;SDS011;31884;52.538;13.820;2023-06-10T05:02:53;11.75;;;5.35;;
44842;SDS011;31884;52.538;13.820;2023-06-10T05:05:18;8.05;;;4.93;;
44842;SDS011;31884;52.538;13.820;2023-06-10T05:07:44;8.98;;;4.65;;
44842;SDS011;31884;52.538;13.820;2023-06-10T05:10:10;7.82;;;5.45;;
44842;SDS011;31884;52.538;13.820;2023-06-10T05:12:37;6.65;;;4.53;;
44842;SDS011;31884;52.538;13.820;2023-06-10T05:15:06;8.07;;;4.75;;
44842;SDS011;31884;52.538;13.820;2023-06-10T05:17:32;8.52;;;4.78;;
44842;SDS011;31884;52.538;13.820;2023-06-10T05:19:58;8.70;;;4.55;;
44842;SDS011;31884;52.538;13.820;2023-06-10T05:22:23;8.80;;;4.85;;
44842;SDS011;31884;52.538;13.820;2023-06-10T05:24:49;10.90;;;5.47;;
44842;SDS011;31884;52.538;13.820;2023-06-10T05:27:16;7.07;;;4.75;;
44842;SDS011;31884;52.538;13.820;2023-06-10T05:29:41;5.25;;;4.22;;
44842;SDS011;31884;52.538;13.820;2023-06-10T05:32:07;6.65;;;4.50;;
44842;SDS011;31884;52.538;13.820;2023-06-10T05:34:33;7.45;;;4.28;;
44842;SDS011;31884;52.538;13.820;2023-06-10T05:36:59;8.88;;;4.20;;
44842;SDS011;31884;52.538;13.820;2023-06-10T05:39:24;8.98;;;4.75;;
44842;SDS011;31884;52.538;13.820;2023-06-10T05:41:50;8.50;;;5.45;;
44842;SDS011;31884;52.538;13.820;2023-06-10T05:44:15;5.90;;;4.65;;
44842;SDS011;31884;52.538;13.820;2023-06-10T05:46:41;8.55;;;5.28;;
44842;SDS011;31884;52.538;13.820;2023-06-10T05:49:06;6.32;;;4.47;;
44842;SDS011;31884;52.538;13.820;2023-06-10T05:51:32;6.68;;;4.68;;
44842;SDS011;31884;52.538;13.820;2023-06-10T05:53:57;6.63;;;3.97;;
44842;SDS011;31884;52.538;13.820;2023-06-10T05:56:23;7.43;;;4.43;;
44842;SDS011;31884;52.538;13.820;2023-06-10T05:58:49;7.10;;;5.20;;
44842;SDS011;31884;52.538;13.820;2023-06-10T06:01:16;7.13;;;4.53;;
44842;SDS011;31884;52.538;13.820;2023-06-10T06:03:41;6.82;;;4.50;;
44842;SDS011;31884;52.538;13.820;2023-06-10T06:06:07;6.72;;;4.80;;
44842;SDS011;31884;52.538;13.820;2023-06-10T06:08:32;8.27;;;4.75;;
44842;SDS011;31884;52.538;13.820;2023-06-10T06:10:58;8.98;;;4.55;;
44842;SDS011;31884;52.538;13.820;2023-06-10T06:13:23;6.53;;;5.28;;
44842;SDS011;31884;52.538;13.820;2023-06-10T06:15:49;8.30;;;4.75;;
44842;SDS011;31884;52.538;13.820;2023-06-10T06:18:15;7.93;;;5.03;;
44842;SDS011;31884;52.538;13.820;2023-06-10T06:20:40;7.75;;;4.88;;
44842;SDS011;31884;52.538;13.820;2023-06-10T06:23:06;9.20;;;5.25;;
44842;SDS011;31884;52.538;13.820;2023-06-10T06:25:34;6.90;;;4.43;;
44842;SDS011;31884;52.538;13.820;2023-06-10T06:28:00;5.65;;;4.38;;
44842;SDS011;31884;52.538;13.820;2023-06-10T06:30:26;5.30;;;4.50;;
44842;SDS011;31884;52.538;13.820;2023-06-10T06:32:52;10.13;;;5.00;;
44842;SDS011;31884;52.538;13.820;2023-06-10T06:35:17;8.48;;;5.65;;
44842;SDS011;31884;52.538;13.820;2023-06-10T06:37:43;7.50;;;5.38;;
44842;SDS011;31884;52.538;13.820;2023-06-10T06:40:09;7.10;;;5.22;;
44842;SDS011;31884;52.538;13.820;2023-06-10T06:42:36;7.65;;;5.00;;
44842;SDS011;31884;52.538;13.820;2023-06-10T06:45:01;7.63;;;4.97;;
44842;SDS011;31884;52.538;13.820;2023-06-10T06:47:27;8.90;;;5.97;;
44842;SDS011;31884;52.538;13.820;2023-06-10T06:49:52;11.52;;;5.32;;
44842;SDS011;31884;52.538;13.820;2023-06-10T06:52:18;6.13;;;4.93;;
44842;SDS011;31884;52.538;13.820;2023-06-10T06:54:44;9.73;;;5.15;;
44842;SDS011;31884;52.538;13.820;2023-06-10T06:57:09;7.20;;;4.90;;
44842;SDS011;31884;52.538;13.820;2023-06-10T06:59:35;7.80;;;5.40;;
44842;SDS011;31884;52.538;13.820;2023-06-10T07:02:01;12.05;;;5.85;;
44842;SDS011;31884;52.538;13.820;2023-06-10T07:04:26;8.43;;;5.28;;
44842;SDS011;31884;52.538;13.820;2023-06-10T07:06:51;8.45;;;4.78;;
44842;SDS011;31884;52.538;13.820;2023-06-10T07:09:17;7.68;;;5.30;;
44842;SDS011;31884;52.538;13.820;2023-06-10T07:11:42;9.48;;;4.63;;
44842;SDS011;31884;52.538;13.820;2023-06-10T07:14:08;6.65;;;4.15;;
44842;SDS011;31884;52.538;13.820;2023-06-10T07:16:34;5.65;;;4.10;;
44842;SDS011;31884;52.538;13.820;2023-06-10T07:18:59;5.35;;;3.88;;
44842;SDS011;31884;52.538;13.820;2023-06-10T07:21:25;7.85;;;4.78;;
44842;SDS011;31884;52.538;13.820;2023-06-10T07:23:50;9.93;;;4.75;;
44842;SDS011;31884;52.538;13.820;2023-06-10T07:26:19;8.13;;;4.90;;
44842;SDS011;31884;52.538;13.820;2023-06-10T07:28:46;8.15;;;5.05;;
44842;SDS011;31884;52.538;13.820;2023-06-10T07:31:12;9.32;;;6.10;;
44842;SDS011;31884;52.538;13.820;2023-06-10T07:33:37;10.38;;;5.45;;
44842;SDS011;31884;52.538;13.820;2023-06-10T07:36:06;10.98;;;5.30;;
44842;SDS011;31884;52.538;13.820;2023-06-10T07:38:32;9.52;;;5.25;;
44842;SDS011;31884;52.538;13.820;2023-06-10T07:40:57;6.15;;;5.45;;
44842;SDS011;31884;52.538;13.820;2023-06-10T07:43:23;8.20;;;4.97;;
44842;SDS011;31884;52.538;13.820;2023-06-10T07:45:49;5.95;;;5.32;;
44842;SDS011;31884;52.538;13.820;2023-06-10T07:48:15;9.00;;;5.22;;
44842;SDS011;31884;52.538;13.820;2023-06-10T07:50:40;8.40;;;5.45;;
44842;SDS011;31884;52.538;13.820;2023-06-10T07:53:06;8.60;;;5.25;;
44842;SDS011;31884;52.538;13.820;2023-06-10T07:55:31;9.57;;;5.32;;
44842;SDS011;31884;52.538;13.820;2023-06-10T07:57:57;8.57;;;5.60;;
44842;SDS011;31884;52.538;13.820;2023-06-10T08:00:23;6.65;;;5.50;;
44842;SDS011;31884;52.538;13.820;2023-06-10T08:02:48;11.52;;;5.70;;
44842;SDS011;31884;52.538;13.820;2023-06-10T08:05:14;8.02;;;5.20;;
44842;SDS011;31884;52.538;13.820;2023-06-10T08:07:39;10.60;;;5.82;;
44842;SDS011;31884;52.538;13.820;2023-06-10T08:10:05;7.80;;;4.80;;
44842;SDS011;31884;52.538;13.820;2023-06-10T08:12:32;8.30;;;5.93;;
44842;SDS011;31884;52.538;13.820;2023-06-10T08:14:58;7.22;;;5.22;;
44842;SDS011;31884;52.538;13.820;2023-06-10T08:17:23;6.25;;;5.22;;
44842;SDS011;31884;52.538;13.820;2023-06-10T08:19:49;10.55;;;5.35;;
44842;SDS011;31884;52.538;13.820;2023-06-10T08:22:14;7.40;;;6.10;;
44842;SDS011;31884;52.538;13.820;2023-06-10T08:24:40;7.28;;;5.15;;
44842;SDS011;31884;52.538;13.820;2023-06-10T08:27:05;6.80;;;4.80;;
44842;SDS011;31884;52.538;13.820;2023-06-10T08:29:31;7.97;;;5.30;;
44842;SDS011;31884;52.538;13.820;2023-06-10T08:31:57;8.38;;;4.65;;
44842;SDS011;31884;52.538;13.820;2023-06-10T08:34:23;5.35;;;4.85;;
44842;SDS011;31884;52.538;13.820;2023-06-10T08:36:48;7.07;;;5.35;;
44842;SDS011;31884;52.538;13.820;2023-06-10T08:39:20;7.72;;;5.43;;
44842;SDS011;31884;52.538;13.820;2023-06-10T08:41:48;6.57;;;5.03;;
44842;SDS011;31884;52.538;13.820;2023-06-10T08:44:36;5.35;;;4.85;;
44842;SDS011;31884;52.538;13.820;2023-06-10T08:47:05;10.70;;;4.97;;
44842;SDS011;31884;52.538;13.820;2023-06-10T08:49:38;7.00;;;5.03;;
44842;SDS011;31884;52.538;13.820;2023-06-10T08:52:06;9.27;;;6.28;;
44842;SDS011;31884;52.538;13.820;2023-06-10T08:54:33;9.20;;;5.50;;
44842;SDS011;31884;52.538;13.820;2023-06-10T08:57:03;6.72;;;5.00;;
44842;SDS011;31884;52.538;13.820;2023-06-10T08:59:31;5.82;;;5.22;;
44842;SDS011;31884;52.538;13.820;2023-06-10T09:01:56;6.93;;;5.40;;
44842;SDS011;31884;52.538;13.820;2023-06-10T09:04:23;5.55;;;5.03;;
44842;SDS011;31884;52.538;13.820;2023-06-10T09:06:49;8.13;;;5.13;;
44842;SDS011;31884;52.538;13.820;2023-06-10T09:09:15;5.05;;;4.32;;
44842;SDS011;31884;52.538;13.820;2023-06-10T09:11:44;7.78;;;4.88;;
44842;SDS011;31884;52.538;13.820;2023-06-10T09:14:09;5.57;;;5.00;;
44842;SDS011;31884;52.538;13.820;2023-06-10T09:16:37;7.28;;;5.70;;
44842;SDS011;31884;52.538;13.820;2023-06-10T09:19:03;6.90;;;5.72;;
44842;SDS011;31884;52.538;13.820;2023-06-10T09:21:33;7.97;;;5.35;;
44842;SDS011;31884;52.538;13.820;2023-06-10T09:24:00;7.70;;;5.75;;
44842;SDS011;31884;52.538;13.820;2023-06-10T09:26:29;9.98;;;5.43;;
44842;SDS011;31884;52.538;13.820;2023-06-10T09:29:02;6.72;;;5.68;;
44842;SDS011;31884;52.538;13.820;2023-06-10T09:31:36;7.28;;;5.65;;
44842;SDS011;31884;52.538;13.820;2023-06-10T09:34:10;10.88;;;5.10;;
44842;SDS011;31884;52.538;13.820;2023-06-10T09:36:37;7.22;;;5.03;;
44842;SDS011;31884;52.538;13.820;2023-06-10T09:39:03;10.63;;;5.10;;
44842;SDS011;31884;52.538;13.820;2023-06-10T09:41:33;4.68;;;4.22;;
44842;SDS011;31884;52.538;13.820;2023-06-10T09:44:00;5.88;;;5.25;;
44842;SDS011;31884;52.538;13.820;2023-06-10T09:46:25;7.97;;;5.30;;
44842;SDS011;31884;52.538;13.820;2023-06-10T09:48:57;6.20;;;5.13;;
44842;SDS011;31884;52.538;13.820;2023-06-10T09:51:23;5.55;;;4.93;;
44842;SDS011;31884;52.538;13.820;2023-06-10T09:53:49;7.97;;;5.18;;
44842;SDS011;31884;52.538;13.820;2023-06-10T09:56:16;7.97;;;5.65;;
44842;SDS011;31884;52.538;13.820;2023-06-10T09:58:42;6.13;;;5.40;;
44842;SDS011;31884;52.538;13.820;2023-06-10T10:01:08;6.90;;;5.18;;
44842;SDS011;31884;52.538;13.820;2023-06-10T10:03:49;9.82;;;5.80;;
44842;SDS011;31884;52.538;13.820;2023-06-10T10:06:16;6.93;;;5.40;;
44842;SDS011;31884;52.538;13.820;2023-06-10T10:08:42;10.75;;;6.30;;
44842;SDS011;31884;52.538;13.820;2023-06-10T10:11:09;6.10;;;5.13;;
44842;SDS011;31884;52.538;13.820;2023-06-10T10:13:35;6.22;;;4.60;;
44842;SDS011;31884;52.538;13.820;2023-06-10T10:16:04;5.95;;;4.40;;
44842;SDS011;31884;52.538;13.820;2023-06-10T10:18:35;4.22;;;3.72;;
44842;SDS011;31884;52.538;13.820;2023-06-10T10:21:09;6.03;;;3.90;;
44842;SDS011;31884;52.538;13.820;2023-06-10T10:23:43;5.32;;;3.50;;
44842;SDS011;31884;52.538;13.820;2023-06-10T10:26:26;5.78;;;3.88;;
44842;SDS011;31884;52.538;13.820;2023-06-10T10:29:05;3.95;;;3.38;;
44842;SDS011;31884;52.538;13.820;2023-06-10T10:31:35;4.97;;;4.00;;
44842;SDS011;31884;52.538;13.820;2023-06-10T10:34:04;4.82;;;3.20;;
44842;SDS011;31884;52.538;13.820;2023-06-10T10:36:36;3.97;;;3.58;;
44842;SDS011;31884;52.538;13.820;2023-06-10T10:39:02;4.68;;;3.85;;
44842;SDS011;31884;52.538;13.820;2023-06-10T10:41:30;6.80;;;4.20;;
44842;SDS011;31884;52.538;13.820;2023-06-10T10:43:57;7.03;;;3.65;;
44842;SDS011;31884;52.538;13.820;2023-06-10T10:46:23;7.35;;;3.97;;
44842;SDS011;31884;52.538;13.820;2023-06-10T10:48:51;5.22;;;4.13;;
44842;SDS011;31884;52.538;13.820;2023-06-10T10:51:19;3.70;;;3.40;;
44842;SDS011;31884;52.538;13.820;2023-06-10T10:53:49;5.45;;;3.80;;
44842;SDS011;31884;52.538;13.820;2023-06-10T10:56:40;6.43;;;4.20;;
44842;SDS011;31884;52.538;13.820;2023-06-10T11:02:15;4.72;;;4.30;;
44842;SDS011;31884;52.538;13.820;2023-06-10T11:04:56;6.47;;;5.03;;
44842;SDS011;31884;52.538;13.820;2023-06-10T11:07:22;5.60;;;4.50;;
44842;SDS011;31884;52.538;13.820;2023-06-10T11:15:07;8.13;;;6.32;;
44842;SDS011;31884;52.538;13.820;2023-06-10T11:17:33;10.80;;;6.50;;
44842;SDS011;31884;52.538;13.820;2023-06-10T11:19:59;10.05;;;5.72;;
44842;SDS011;31884;52.538;13.820;2023-06-10T11:22:25;8.73;;;5.90;;
44842;SDS011;31884;52.538;13.820;2023-06-10T11:24:50;9.52;;;6.45;;
44842;SDS011;31884;52.538;13.820;2023-06-10T11:29:56;9.23;;;6.07;;
44842;SDS011;31884;52.538;13.820;2023-06-10T11:32:21;9.43;;;6.60;;
44842;SDS011;31884;52.538;13.820;2023-06-10T11:34:52;8.13;;;6.45;;
44842;SDS011;31884;52.538;13.820;2023-06-10T11:37:18;8.25;;;6.28;;
44842;SDS011;31884;52.538;13.820;2023-06-10T11:39:44;7.32;;;6.15;;
44842;SDS011;31884;52.538;13.820;2023-06-10T11:42:10;7.95;;;6.40;;
44842;SDS011;31884;52.538;13.820;2023-06-10T11:44:36;7.65;;;6.38;;
44842;SDS011;31884;52.538;13.820;2023-06-10T11:47:02;7.93;;;5.97;;
44842;SDS011;31884;52.538;13.820;2023-06-10T11:49:28;8.57;;;5.72;;
44842;SDS011;31884;52.538;13.820;2023-06-10T11:51:54;8.43;;;6.05;;
44842;SDS011;31884;52.538;13.820;2023-06-10T11:54:19;10.00;;;6.38;;
44842;SDS011;31884;52.538;13.820;2023-06-10T11:56:46;6.90;;;6.20;;
44842;SDS011;31884;52.538;13.820;2023-06-10T11:59:13;8.48;;;5.78;;
44842;SDS011;31884;52.538;13.820;2023-06-10T12:01:42;10.23;;;6.03;;
44842;SDS011;31884;52.538;13.820;2023-06-10T12:04:10;10.70;;;7.03;;
44842;SDS011;31884;52.538;13.820;2023-06-10T12:06:41;11.77;;;6.95;;
44842;SDS011;31884;52.538;13.820;2023-06-10T12:11:48;9.48;;;6.75;;
44842;SDS011;31884;52.538;13.820;2023-06-10T12:14:16;9.13;;;6.50;;
44842;SDS011;31884;52.538;13.820;2023-06-10T12:17:01;9.52;;;6.80;;
44842;SDS011;31884;52.538;13.820;2023-06-10T12:19:27;9.32;;;6.75;;
44842;SDS011;31884;52.538;13.820;2023-06-10T12:21:53;8.90;;;6.25;;
44842;SDS011;31884;52.538;13.820;2023-06-10T12:24:18;11.85;;;6.15;;
44842;SDS011;31884;52.538;13.820;2023-06-10T12:26:44;10.25;;;6.20;;
44842;SDS011;31884;52.538;13.820;2023-06-10T12:34:33;7.57;;;6.05;;
44842;SDS011;31884;52.538;13.820;2023-06-10T12:37:03;10.90;;;6.32;;
44842;SDS011;31884;52.538;13.820;2023-06-10T12:39:31;6.97;;;5.45;;
44842;SDS011;31884;52.538;13.820;2023-06-10T12:41:57;8.55;;;6.10;;
44842;SDS011;31884;52.538;13.820;2023-06-10T12:44:33;9.77;;;6.05;;
44842;SDS011;31884;52.538;13.820;2023-06-10T12:47:00;8.85;;;6.20;;
44842;SDS011;31884;52.538;13.820;2023-06-10T12:49:31;8.45;;;6.63;;
44842;SDS011;31884;52.538;13.820;2023-06-10T12:51:57;6.05;;;5.45;;
44842;SDS011;31884;52.538;13.820;2023-06-10T12:54:22;6.10;;;4.93;;
44842;SDS011;31884;52.538;13.820;2023-06-10T12:56:48;7.18;;;5.50;;
44842;SDS011;31884;52.538;13.820;2023-06-10T12:59:14;6.80;;;4.60;;
44842;SDS011;31884;52.538;13.820;2023-06-10T13:01:39;7.15;;;4.85;;
44842;SDS011;31884;52.538;13.820;2023-06-10T13:04:05;6.93;;;4.80;;
44842;SDS011;31884;52.538;13.820;2023-06-10T13:06:32;6.55;;;4.90;;
44842;SDS011;31884;52.538;13.820;2023-06-10T13:09:01;6.63;;;4.75;;
44842;SDS011;31884;52.538;13.820;2023-06-10T13:11:27;7.45;;;5.53;;
44842;SDS011;31884;52.538;13.820;2023-06-10T13:13:53;11.27;;;5.10;;
44842;SDS011;31884;52.538;13.820;2023-06-10T13:16:18;6.53;;;4.80;;
44842;SDS011;31884;52.538;13.820;2023-06-10T13:18:44;5.07;;;4.60;;
44842;SDS011;31884;52.538;13.820;2023-06-10T13:21:09;6.00;;;5.00;;
44842;SDS011;31884;52.538;13.820;2023-06-10T13:23:35;9.55;;;4.70;;
44842;SDS011;31884;52.538;13.820;2023-06-10T13:26:00;6.07;;;5.38;;
44842;SDS011;31884;52.538;13.820;2023-06-10T13:28:28;7.72;;;5.47;;
44842;SDS011;31884;52.538;13.820;2023-06-10T13:30:53;6.80;;;4.97;;
44842;SDS011;31884;52.538;13.820;2023-06-10T13:33:19;6.50;;;4.93;;
44842;SDS011;31884;52.538;13.820;2023-06-10T13:35:44;5.55;;;4.65;;
44842;SDS011;31884;52.538;13.820;2023-06-10T13:38:10;10.45;;;5.55;;
44842;SDS011;31884;52.538;13.820;2023-06-10T13:40:35;5.57;;;4.80;;
44842;SDS011;31884;52.538;13.820;2023-06-10T13:43:01;6.35;;;5.05;;
44842;SDS011;31884;52.538;13.820;2023-06-10T13:45:27;5.78;;;5.03;;
44842;SDS011;31884;52.538;13.820;2023-06-10T13:47:53;7.55;;;5.32;;
44842;SDS011;31884;52.538;13.820;2023-06-10T13:50:18;7.45;;;5.00;;
44842;SDS011;31884;52.538;13.820;2023-06-10T13:52:44;7.38;;;5.63;;
44842;SDS011;31884;52.538;13.820;2023-06-10T13:55:09;6.47;;;5.38;;
44842;SDS011;31884;52.538;13.820;2023-06-10T13:57:35;7.88;;;4.88;;
44842;SDS011;31884;52.538;13.820;2023-06-10T14:00:00;7.80;;;4.65;;
44842;SDS011;31884;52.538;13.820;2023-06-10T14:02:26;8.13;;;5.38;;
44842;SDS011;31884;52.538;13.820;2023-06-10T14:04:52;5.85;;;5.32;;
44842;SDS011;31884;52.538;13.820;2023-06-10T14:07:18;8.18;;;5.80;;
44842;SDS011;31884;52.538;13.820;2023-06-10T14:09:43;9.23;;;5.80;;
44842;SDS011;31884;52.538;13.820;2023-06-10T14:12:09;11.98;;;5.50;;
44842;SDS011;31884;52.538;13.820;2023-06-10T14:14:35;10.48;;;5.10;;
44842;SDS011;31884;52.538;13.820;2023-06-10T14:17:01;10.20;;;5.13;;
44842;SDS011;31884;52.538;13.820;2023-06-10T14:19:26;8.38;;;5.07;;
44842;SDS011;31884;52.538;13.820;2023-06-10T14:21:52;5.20;;;4.50;;
44842;SDS011;31884;52.538;13.820;2023-06-10T14:24:18;5.43;;;4.47;;
44842;SDS011;31884;52.538;13.820;2023-06-10T14:26:44;8.50;;;4.60;;
44842;SDS011;31884;52.538;13.820;2023-06-10T14:29:09;9.88;;;5.18;;
44842;SDS011;31884;52.538;13.820;2023-06-10T14:31:35;7.38;;;4.47;;
44842;SDS011;31884;52.538;13.820;2023-06-10T14:34:01;8.80;;;5.13;;
44842;SDS011;31884;52.538;13.820;2023-06-10T14:36:26;5.45;;;4.68;;
44842;SDS011;31884;52.538;13.820;2023-06-10T14:38:52;5.22;;;4.65;;
44842;SDS011;31884;52.538;13.820;2023-06-10T14:41:18;9.88;;;5.38;;
44842;SDS011;31884;52.538;13.820;2023-06-10T14:43:44;8.32;;;5.07;;
44842;SDS011;31884;52.538;13.820;2023-06-10T14:46:09;7.75;;;4.70;;
44842;SDS011;31884;52.538;13.820;2023-06-10T14:48:35;6.72;;;4.75;;
44842;SDS011;31884;52.538;13.820;2023-06-10T14:51:01;6.82;;;4.25;;
44842;SDS011;31884;52.538;13.820;2023-06-10T14:53:27;13.70;;;5.63;;